Time;durP1;ratioP1;P1;durP2;ratioP2;P2;SDS_P1;SDS_P2;PMS_P1;PMS_P2;Temp;Humidity;BMP_temperature;BMP_pressure;BME280_temperature;BME280_humidity;BME280_pressure;Samples;Min_cycle;Max_cycle;Signal;HPM_P1;HPM_P2
2021/04/13 00:01:08;;;;;;;;;;;2.10;99.90;;;1.02;84.66;96670.75;10293243;28;1924;-77
2021/04/13 00:06:10;;;;;;;;;;;2.10;99.90;;;1.08;84.66;96677.94;10301006;28;1910;-79
2021/04/13 00:11:12;;;;;;;;;;;2.10;99.90;;;1.11;84.94;96676.72;10291147;28;1991;-76
2021/04/13 00:16:13;;;;;;;;;;;2.20;99.90;;;1.12;84.40;96673.06;10295333;28;2036;-78
2021/04/13 00:21:15;;;;;;;;;;;2.20;99.90;;;1.13;84.79;96676.53;10259901;28;1943;-79
2021/04/13 00:26:17;;;;;;;;;;;2.20;99.90;;;1.21;84.95;96673.72;10290315;28;1961;-78
2021/04/13 00:31:18;;;;;;;;;;;2.20;99.90;;;1.18;85.06;96674.13;10290092;28;2075;-77
2021/04/13 00:36:20;;;;;;;;;;;2.50;99.90;;;1.23;85.21;96674.38;10292565;28;2151;-78
2021/04/13 00:41:22;;;;;;;;;;;2.30;99.90;;;1.26;84.96;96669.50;10281464;28;1738;-77
2021/04/13 00:46:23;;;;;;;;;;;2.30;99.90;;;1.29;85.28;96676.25;10272288;28;1992;-77
2021/04/13 00:51:25;;;;;;;;;;;2.40;99.90;;;1.28;85.79;96669.31;10305970;28;1932;-82
2021/04/13 00:56:27;;;;;;;;;;;2.30;99.90;;;1.19;86.00;96683.72;10302228;28;1973;-76
2021/04/13 01:01:29;;;;;;;;;;;2.30;99.90;;;1.05;86.49;96677.50;10287935;28;2064;-76
2021/04/13 01:06:31;;;;;;;;;;;2.90;99.90;;;0.97;87.94;96686.41;10272114;28;1926;-77
2021/04/13 01:11:32;;;;;;;;;;;0.60;99.90;;;0.94;89.24;96683.31;10292729;28;2063;-80
2021/04/13 01:16:35;;;;;;;;;;;2.00;99.90;;;0.96;89.38;96687.41;10269868;28;1782;-76
2021/04/13 01:21:40;;;;;;;;;;;2.00;99.90;;;0.85;89.81;96685.28;10268081;28;2029;-78
2021/04/13 01:26:43;;;;;;;;;;;2.00;99.90;;;0.77;89.84;96682.75;10279049;28;3328;-78
2021/04/13 01:31:49;;;;;;;;;;;1.90;99.90;;;0.63;90.26;96678.34;10278376;28;2187;-75
2021/04/13 01:37:01;;;;;;;;;;;1.80;99.90;;;0.51;91.04;96681.50;10282467;28;2058;-77
2021/04/13 01:42:03;;;;;;;;;;;1.70;99.90;;;0.52;91.19;96680.50;10269262;28;2006;-78
2021/04/13 01:47:05;;;;;;;;;;;2.30;99.90;;;0.53;91.14;96676.84;10290505;28;2338;-79
2021/04/13 01:52:07;;;;;;;;;;;1.70;99.90;;;0.54;91.46;96678.47;10291874;28;2057;-77
2021/04/13 01:57:08;;;;;;;;;;;1.70;99.90;;;0.49;91.53;96677.38;10286161;28;2243;-77
2021/04/13 02:02:10;;;;;;;;;;;1.60;99.90;;;0.32;92.63;96679.47;10281222;28;2175;-78
2021/04/13 02:07:18;;;;;;;;;;;1.50;99.90;;;0.28;92.76;96678.19;10282634;28;2048;-77
2021/04/13 02:12:20;;;;;;;;;;;1.40;99.90;;;0.21;93.19;96677.31;10282279;28;2176;-79
2021/04/13 02:17:22;;;;;;;;;;;1.30;99.90;;;0.16;93.94;96672.56;10276593;28;2033;-77
2021/04/13 02:22:24;;;;;;;;;;;1.30;99.90;;;0.18;93.87;96669.72;10286647;28;2160;-77
2021/04/13 02:27:26;;;;;;;;;;;1.30;99.90;;;0.16;94.15;96669.91;10275129;28;2226;-78
2021/04/13 02:32:27;;;;;;;;;;;1.30;99.90;;;0.21;94.54;96666.72;10286202;28;2037;-79
2021/04/13 02:37:30;;;;;;;;;;;1.30;99.90;;;0.22;94.73;96674.47;10290197;28;2097;-79
2021/04/13 02:42:37;;;;;;;;;;;1.30;99.90;;;0.22;94.57;96671.00;10294520;28;2067;-80
2021/04/13 02:47:38;;;;;;;;;;;1.30;99.90;;;0.21;94.32;96669.38;10298874;28;2137;-80
2021/04/13 02:52:41;;;;;;;;;;;1.30;99.90;;;0.22;94.62;96663.06;10272979;28;1894;-79
2021/04/13 02:57:43;;;;;;;;;;;1.30;99.90;;;0.24;94.20;96666.34;10292171;28;2097;-78
2021/04/13 03:02:45;;;;;;;;;;;1.30;99.90;;;0.28;94.71;96659.69;10278151;28;2374;-79
2021/04/13 03:07:46;;;;;;;;;;;2.00;99.90;;;0.37;94.48;96661.19;10289307;28;1996;-79
2021/04/13 03:12:48;;;;;;;;;;;1.40;99.90;;;0.34;94.42;96658.94;10296091;28;2011;-78
2021/04/13 03:17:50;;;;;;;;;;;1.40;99.90;;;0.34;94.53;96660.75;10296383;28;1965;-79
2021/04/13 03:22:52;;;;;;;;;;;1.40;99.90;;;0.37;94.34;96660.38;10275656;28;2140;-79
2021/04/13 03:27:54;;;;;;;;;;;1.50;99.90;;;0.44;94.59;96658.59;10281776;28;1988;-78
2021/04/13 03:32:56;;;;;;;;;;;1.50;99.90;;;0.43;94.32;96652.50;10297743;28;2134;-78
2021/04/13 03:37:57;;;;;;;;;;;1.50;99.90;;;0.47;94.21;96661.72;10303055;28;2112;-75
2021/04/13 03:42:59;;;;;;;;;;;1.50;99.90;;;0.46;94.25;96646.03;10273715;28;1966;-79
2021/04/13 03:48:01;;;;;;;;;;;1.60;99.90;;;0.48;94.14;96647.47;10289525;28;2062;-78
2021/04/13 03:53:03;;;;;;;;;;;1.50;99.90;;;0.58;94.42;96649.81;10288465;28;2012;-77
2021/04/13 03:58:05;;;;;;;;;;;2.50;99.90;;;0.54;93.70;96656.47;10293338;28;2160;-80
2021/04/13 04:03:07;;;;;;;;;;;2.50;99.90;;;0.56;94.03;96653.63;10294400;28;2183;-78
2021/04/13 04:08:09;;;;;;;;;;;1.60;99.90;;;0.54;93.30;96659.94;10274143;28;2070;-81
2021/04/13 04:13:10;;;;;;;;;;;1.60;99.90;;;0.58;93.80;96659.59;10266891;28;2139;-78
2021/04/13 04:18:12;;;;;;;;;;;1.60;99.90;;;0.63;93.88;96659.81;10289032;28;1822;-77
2021/04/13 04:23:14;;;;;;;;;;;1.60;99.90;;;0.71;94.08;96662.34;10294603;28;2027;-79
2021/04/13 04:28:16;;;;;;;;;;;1.70;99.90;;;0.70;93.34;96665.97;10310926;28;2376;-78
2021/04/13 04:33:18;;;;;;;;;;;1.70;99.90;;;0.74;92.91;96664.59;10295868;28;2364;-76
2021/04/13 04:38:19;;;;;;;;;;;1.70;99.90;;;0.68;93.37;96668.00;10291604;28;2049;-79
2021/04/13 04:43:22;;;;;;;;;;;1.70;99.90;;;0.71;93.25;96668.47;10274527;28;2323;-78
2021/04/13 04:48:24;;;;;;;;;;;1.80;99.90;;;0.79;93.26;96675.44;10273378;28;1949;-79
2021/04/13 04:53:26;;;;;;;;;;;1.80;99.90;;;0.94;93.45;96673.53;10291660;28;2082;-79
2021/04/13 04:58:28;;;;;;;;;;;1.90;99.90;;;1.06;93.11;96682.59;10279829;28;2095;-78
2021/04/13 05:03:30;;;;;;;;;;;2.00;99.90;;;1.08;92.42;96685.03;10279691;28;1971;-78
2021/04/13 05:08:32;;;;;;;;;;;2.00;99.90;;;1.20;91.92;96688.00;10273610;28;1900;-77
2021/04/13 05:13:34;;;;;;;;;;;2.10;99.90;;;1.18;91.51;96690.03;10278399;28;1845;-78
2021/04/13 05:18:36;;;;;;;;;;;2.10;99.90;;;1.28;91.07;96698.47;10293652;28;1912;-78
2021/04/13 05:23:39;;;;;;;;;;;2.30;99.90;;;1.31;91.11;96695.41;10277555;28;1918;-79
2021/04/13 05:28:41;;;;;;;;;;;3.40;99.90;;;1.42;91.20;96702.84;10276000;28;2161;-79
2021/04/13 05:33:43;;;;;;;;;;;2.40;99.90;;;1.65;90.91;96689.31;10280109;28;1618;-77
2021/04/13 05:38:46;;;;;;;;;;;3.10;99.90;;;1.67;90.25;96697.91;10276665;28;2000;-78
2021/04/13 05:43:47;;;;;;;;;;;2.60;99.90;;;1.73;90.32;96704.25;10271795;28;1969;-76
2021/04/13 05:48:50;;;;;;;;;;;2.70;99.90;;;1.72;89.42;96698.16;10276298;28;1993;-77
2021/04/13 05:53:51;;;;;;;;;;;4.60;99.90;;;1.75;88.60;96702.22;10271485;28;1967;-77
2021/04/13 05:58:55;;;;;;;;;;;2.70;99.90;;;2.03;89.94;96710.09;10281919;28;2015;-81
2021/04/13 06:03:56;;;;;;;;;;;2.80;99.90;;;1.94;88.77;96712.13;10266730;28;1929;-77
2021/04/13 06:08:58;;;;;;;;;;;2.90;99.90;;;1.98;89.01;96718.69;10294112;28;1655;-78
2021/04/13 06:14:01;;;;;;;;;;;2.90;99.90;;;1.79;87.25;96708.78;10257889;28;2020;-79
2021/04/13 06:19:03;;;;;;;;;;;2.80;99.90;;;1.93;88.16;96713.13;10270140;28;1774;-78
2021/04/13 06:24:05;;;;;;;;;;;2.90;99.90;;;1.96;87.28;96715.38;10298908;28;1952;-78
2021/04/13 06:29:06;;;;;;;;;;;2.90;99.90;;;2.11;87.43;96724.03;10277752;28;2084;-78
2021/04/13 06:34:08;;;;;;;;;;;3.00;99.90;;;2.24;87.37;96717.16;10277628;28;2041;-78
2021/04/13 06:39:10;;;;;;;;;;;3.00;99.90;;;2.16;86.76;96713.66;10283086;28;1948;-79
2021/04/13 06:44:12;;;;;;;;;;;3.10;99.90;;;2.25;86.85;96713.50;10271597;28;2018;-80
2021/04/13 06:49:15;;;;;;;;;;;4.20;99.90;;;2.51;86.14;96713.56;10302931;28;2059;-78
2021/04/13 06:54:17;;;;;;;;;;;3.30;99.90;;;2.40;85.93;96716.78;10302858;28;1949;-81
2021/04/13 06:59:20;;;;;;;;;;;4.70;99.90;;;2.16;85.25;96718.97;10299112;28;2164;-80
2021/04/13 07:04:24;;;;;;;;;;;3.20;99.90;;;2.10;85.79;96711.81;10297988;28;1976;-81
2021/04/13 07:09:27;;;;;;;;;;;3.10;99.90;;;2.39;85.80;96718.63;10282898;28;1680;-80
2021/04/13 07:14:29;;;;;;;;;;;3.20;99.90;;;2.48;84.84;96713.97;10284440;28;1980;-79
2021/04/13 07:19:32;;;;;;;;;;;3.30;99.90;;;2.63;83.44;96711.97;10284450;28;1999;-80
2021/04/13 07:24:34;;;;;;;;;;;3.50;99.90;;;2.46;81.96;96718.66;10303820;28;2342;-81
2021/04/13 07:29:36;;;;;;;;;;;3.50;99.90;;;2.66;81.68;96711.56;10295906;28;1938;-81
2021/04/13 07:34:38;;;;;;;;;;;4.80;99.90;;;2.62;82.38;96720.16;10297622;28;1911;-82
2021/04/13 07:39:44;;;;;;;;;;;3.40;99.90;;;2.68;80.25;96722.81;10304380;28;1352;-81
2021/04/13 07:44:46;;;;;;;;;;;4.70;99.90;;;2.81;80.35;96718.56;10283845;28;1969;-82
2021/04/13 07:49:51;;;;;;;;;;;4.50;99.90;;;3.51;79.09;96725.13;10297921;28;1980;-79
2021/04/13 07:54:56;;;;;;;;;;;3.90;99.90;;;3.41;76.01;96730.03;10267713;28;1805;-80
2021/04/13 08:00:15;;;;;;;;;;;4.70;99.90;;;3.60;73.89;96726.56;10285463;28;2356;-79
2021/04/13 08:05:50;;;;;;;;;;;4.80;99.90;;;3.42;74.89;96737.00;10293068;28;1967;-81
2021/04/13 08:10:52;;;;;;;;;;;4.40;99.90;;;3.22;77.45;96732.50;10302047;28;1868;-80
2021/04/13 08:21:22;;;;;;;;;;;5.50;99.90;;;3.27;75.27;96723.91;10273448;28;1936;-83
2021/04/13 08:26:28;;;;;;;;;;;4.10;99.90;;;2.94;74.65;96742.47;10289174;28;2010;-80
2021/04/13 08:37:14;;;;;;;;;;;3.90;99.90;;;3.70;71.97;96734.94;10300828;28;2033;-79
2021/04/13 08:42:43;;;;;;;;;;;5.20;99.90;;;3.88;70.52;96733.47;10288805;28;2124;-77
2021/04/13 08:47:57;;;;;;;;;;;4.60;99.90;;;4.56;69.83;96731.19;10293483;28;1981;-80
2021/04/13 08:53:05;;;;;;;;;;;5.70;99.90;;;4.69;67.35;96740.97;10279714;28;2008;-79
2021/04/13 08:58:10;;;;;;;;;;;7.00;99.90;;;4.95;66.28;96726.69;10275625;28;2060;-80
2021/04/13 09:08:48;;;;;;;;;;;6.30;99.90;;;4.84;65.72;96741.50;10287394;28;2103;-81
2021/04/13 09:13:55;;;;;;;;;;;5.80;99.90;;;4.20;66.56;96759.19;10291491;28;2074;-82
2021/04/13 09:19:43;;;;;;;;;;;7.50;99.90;;;4.22;63.50;96748.31;10257665;28;1550;-79
2021/04/13 09:24:45;;;;;;;;;;;5.10;99.90;;;4.38;64.07;96752.34;10290228;28;1977;-78
2021/04/13 09:29:50;;;;;;;;;;;6.80;99.90;;;4.13;63.31;96766.34;10310071;28;1358;-77
2021/04/13 09:34:52;;;;;;;;;;;6.00;99.90;;;5.07;60.87;96748.94;10315774;28;1910;-81
2021/04/13 09:39:54;;;;;;;;;;;5.70;99.90;;;5.75;60.08;96743.72;10326139;28;2056;-79
2021/04/13 09:44:56;;;;;;;;;;;6.30;99.90;;;5.80;59.83;96737.72;10305985;28;1883;-82
2021/04/13 09:50:01;;;;;;;;;;;7.60;99.90;;;5.69;59.83;96733.91;10288439;28;1639;-80
2021/04/13 09:55:03;;;;;;;;;;;6.60;99.90;;;6.00;56.89;96721.53;10284464;28;2011;-77
2021/04/13 10:00:05;;;;;;;;;;;7.80;99.90;;;5.47;61.52;96730.84;10304053;28;1913;-77
2021/04/13 10:05:07;;;;;;;;;;;6.40;99.90;;;5.41;56.02;96726.38;10290184;28;1977;-81
2021/04/13 10:10:08;;;;;;;;;;;7.60;99.90;;;6.07;54.05;96722.28;10307815;28;1571;-79
2021/04/13 10:15:10;;;;;;;;;;;7.20;99.90;;;5.51;56.42;96731.19;10309617;28;1995;-80
2021/04/13 10:20:12;;;;;;;;;;;6.70;99.90;;;5.73;57.87;96724.44;10303268;28;2038;-80
2021/04/13 10:25:15;;;;;;;;;;;6.50;99.90;;;6.08;55.69;96718.56;10283578;28;1964;-78
2021/04/13 10:30:18;;;;;;;;;;;7.90;99.90;;;6.22;51.24;96704.03;10296621;28;1938;-80
2021/04/13 10:35:20;;;;;;;;;;;7.10;99.90;;;6.31;51.90;96699.22;10281683;28;2084;-77
2021/04/13 10:40:22;;;;;;;;;;;7.10;99.90;;;6.47;49.73;96699.41;10282632;28;1928;-78
2021/04/13 10:45:23;;;;;;;;;;;7.30;96.30;;;7.10;47.71;96691.97;10283464;28;1948;-78
2021/04/13 10:50:26;;;;;;;;;;;7.50;94.90;;;6.58;51.25;96694.38;10294437;28;2071;-79
2021/04/13 10:55:28;;;;;;;;;;;7.80;94.30;;;6.62;53.15;96691.03;10290961;28;2042;-78
2021/04/13 11:00:29;;;;;;;;;;;7.60;97.10;;;6.10;51.92;96690.63;10292881;28;1973;-77
2021/04/13 11:05:31;;;;;;;;;;;8.00;95.20;;;5.48;51.36;96688.97;10284689;28;1984;-77
2021/04/13 11:10:33;;;;;;;;;;;6.70;92.50;;;5.66;54.04;96691.66;10281734;28;1991;-78
2021/04/13 11:15:35;;;;;;;;;;;6.60;95.00;;;5.29;52.11;96690.78;10300792;28;1742;-76
2021/04/13 11:20:38;;;;;;;;;;;6.40;93.00;;;6.07;51.78;96677.72;10285986;28;1981;-77
2021/04/13 11:25:40;;;;;;;;;;;6.50;94.50;;;7.32;46.71;96675.19;10277224;28;1999;-79
2021/04/13 11:30:43;;;;;;;;;;;7.50;93.00;;;6.94;47.33;96667.56;10314556;28;1928;-78
2021/04/13 11:35:44;;;;;;;;;;;7.90;89.20;;;7.51;46.89;96662.53;10293305;28;1980;-78
2021/04/13 11:40:48;;;;;;;;;;;8.80;88.70;;;7.18;48.63;96662.22;10289394;28;1999;-77
2021/04/13 11:45:50;;;;;;;;;;;7.90;88.90;;;7.13;41.26;96654.09;10288133;28;2062;-78
2021/04/13 11:50:52;;;;;;;;;;;8.00;80.50;;;6.95;44.28;96660.34;10296968;28;1992;-78
2021/04/13 11:55:54;;;;;;;;;;;7.90;81.50;;;7.35;44.58;96657.84;10300789;28;1865;-79
2021/04/13 12:00:56;;;;;;;;;;;8.70;83.40;;;7.10;44.42;96660.72;10281830;28;1976;-79
2021/04/13 12:05:58;;;;;;;;;;;8.10;80.80;;;6.68;45.18;96654.53;10284375;28;2142;-79
2021/04/13 12:11:00;;;;;;;;;;;7.80;80.60;;;6.17;47.86;96651.34;10293364;28;1948;-84
2021/04/13 12:16:01;;;;;;;;;;;7.50;82.20;;;5.77;49.96;96655.44;10283739;28;1945;-82
2021/04/13 12:21:03;;;;;;;;;;;7.00;84.50;;;5.60;49.54;96665.88;10286252;28;1929;-85
2021/04/13 12:26:08;;;;;;;;;;;7.60;84.50;;;5.17;55.87;96672.00;10290196;28;1965;-83
2021/04/13 12:31:11;;;;;;;;;;;7.10;91.00;;;5.40;56.27;96672.19;10300148;28;1994;-82
2021/04/13 12:36:13;;;;;;;;;;;6.70;93.40;;;4.96;57.12;96672.34;10297285;28;2028;-80
2021/04/13 12:41:15;;;;;;;;;;;6.10;93.80;;;4.84;56.88;96675.72;10289487;28;2040;-81
2021/04/13 12:46:17;;;;;;;;;;;5.90;94.20;;;4.74;54.23;96662.06;10278084;28;1991;-85
2021/04/13 12:51:21;;;;;;;;;;;6.00;92.00;;;5.59;48.80;96653.56;10297001;28;2023;-80
2021/04/13 12:56:22;;;;;;;;;;;7.70;88.90;;;6.55;45.75;96647.53;10273359;28;2009;-83
2021/04/13 13:01:38;;;;;;;;;;;7.50;84.90;;;7.07;42.16;96636.31;10299737;28;2040;-82
2021/04/13 13:06:40;;;;;;;;;;;8.60;80.20;;;6.65;43.67;96630.97;10274502;28;2056;-79
2021/04/13 13:11:42;;;;;;;;;;;8.80;78.80;;;6.85;44.06;96626.13;10284203;28;1957;-81
2021/04/13 13:16:45;;;;;;;;;;;7.60;79.10;;;7.32;43.42;96604.81;10295222;28;2120;-81
2021/04/13 13:21:47;;;;;;;;;;;9.40;79.40;;;7.44;43.78;96604.81;10297787;28;2286;-81
2021/04/13 13:26:49;;;;;;;;;;;8.20;78.20;;;7.62;40.58;96603.88;10284406;28;2116;-82
2021/04/13 13:31:51;;;;;;;;;;;8.50;75.30;;;7.68;40.18;96601.06;10313531;28;2048;-82
2021/04/13 13:36:53;;;;;;;;;;;8.60;73.20;;;8.00;41.68;96584.59;10299439;28;1903;-85
2021/04/13 13:47:13;;;;;;;;;;;8.30;71.30;;;6.64;41.35;96597.28;10301092;28;1949;-82
2021/04/13 13:52:29;;;;;;;;;;;7.70;71.30;;;5.96;46.83;96599.22;10279203;28;2048;-83
2021/04/13 13:57:32;;;;;;;;;;;7.20;76.20;;;6.20;49.63;96596.66;10299614;28;2031;-82
2021/04/13 14:02:35;;;;;;;;;;;7.20;81.30;;;6.18;50.29;96607.56;10301664;28;2047;-85
2021/04/13 14:07:37;;;;;;;;;;;7.30;82.00;;;5.64;51.28;96611.03;10292239;28;2356;-82
2021/04/13 14:12:42;;;;;;;;;;;6.90;82.10;;;5.49;51.29;96621.28;10291287;28;1568;-81
2021/04/13 14:17:44;;;;;;;;;;;6.60;82.80;;;4.03;57.18;96635.63;10280209;28;1940;-80
2021/04/13 14:22:47;;;;;;;;;;;5.80;87.20;;;3.44;58.57;96628.66;10299657;28;1896;-83
2021/04/13 14:27:49;;;;;;;;;;;4.70;89.30;;;3.59;57.94;96631.88;10287836;28;1960;-83
2021/04/13 14:33:04;;;;;;;;;;;4.70;90.00;;;4.03;56.78;96619.66;10298588;28;1838;-82
2021/04/13 14:38:06;;;;;;;;;;;4.80;91.80;;;5.00;54.03;96617.59;10306955;28;2037;-83
2021/04/13 14:43:08;;;;;;;;;;;5.50;89.60;;;5.09;53.00;96617.13;10302202;28;2088;-81
2021/04/13 14:48:13;;;;;;;;;;;6.10;88.30;;;5.10;54.34;96612.59;10295000;28;1966;-84
2021/04/13 14:53:15;;;;;;;;;;;7.80;88.70;;;5.18;54.31;96617.66;10296899;28;2267;-80
2021/04/13 14:58:18;;;;;;;;;;;8.00;88.70;;;5.34;53.14;96621.59;10324762;28;2090;-79
2021/04/13 15:03:22;;;;;;;;;;;6.20;87.40;;;5.29;52.64;96622.28;10324716;28;1632;-84
2021/04/13 15:08:26;;;;;;;;;;;6.20;86.50;;;5.08;53.83;96614.66;10301510;28;2335;-86
2021/04/13 15:13:54;;;;;;;;;;;7.60;87.90;;;5.00;55.23;96609.63;10314979;28;1674;-83
2021/04/13 15:19:01;;;;;;;;;;;7.70;89.50;;;5.11;54.18;96611.56;10311973;28;1804;-79
2021/04/13 15:24:03;;;;;;;;;;;6.10;88.30;;;4.74;56.23;96616.78;10319202;28;2043;-83
2021/04/13 15:29:05;;;;;;;;;;;6.00;89.30;;;4.24;61.39;96635.31;10292224;28;1952;-82
2021/04/13 15:34:07;;;;;;;;;;;5.60;93.00;;;3.71;65.93;96635.53;10298351;28;1985;-82
2021/04/13 15:39:09;;;;;;;;;;;5.20;97.90;;;3.23;73.07;96642.97;10299729;28;2154;-81
2021/04/13 15:44:10;;;;;;;;;;;4.50;99.90;;;2.87;72.83;96640.75;10282489;28;1973;-79
2021/04/13 15:49:13;;;;;;;;;;;4.20;99.90;;;2.45;64.25;96621.50;10284165;28;2084;-80
2021/04/13 15:54:14;;;;;;;;;;;3.70;99.90;;;2.86;62.20;96612.53;10300452;28;2070;-82
2021/04/13 15:59:16;;;;;;;;;;;3.80;99.90;;;3.12;65.01;96611.72;10294935;28;2079;-79
2021/04/13 16:04:18;;;;;;;;;;;4.00;99.90;;;3.67;68.38;96607.69;10279975;28;2000;-81
2021/04/13 16:09:20;;;;;;;;;;;4.40;99.90;;;4.21;68.24;96589.69;10295093;28;1968;-83
2021/04/13 16:14:25;;;;;;;;;;;4.90;99.90;;;4.65;64.58;96583.47;10300690;28;2189;-82
2021/04/13 16:19:26;;;;;;;;;;;5.30;99.90;;;5.14;65.58;96579.13;10306469;28;2082;-80
2021/04/13 16:24:28;;;;;;;;;;;5.70;99.90;;;4.98;61.97;96583.19;10288047;28;2103;-80
2021/04/13 16:29:30;;;;;;;;;;;6.00;99.90;;;4.72;59.42;96584.22;10280661;28;2072;-80
2021/04/13 16:34:31;;;;;;;;;;;5.90;99.90;;;4.30;59.18;96605.16;10332397;28;2043;-81
2021/04/13 16:39:33;;;;;;;;;;;5.60;97.30;;;4.05;60.97;96609.59;10338592;28;2037;-82
2021/04/13 16:44:35;;;;;;;;;;;5.30;98.30;;;3.74;61.74;96623.63;10340288;28;1887;-81
2021/04/13 16:49:39;;;;;;;;;;;5.00;99.20;;;3.54;62.47;96618.38;10338946;28;1725;-79
2021/04/13 16:54:42;;;;;;;;;;;4.70;99.80;;;3.42;64.82;96620.84;10322961;28;1969;-82
2021/04/13 16:59:49;;;;;;;;;;;4.60;99.90;;;3.38;66.12;96626.81;10312504;28;1964;-80
2021/04/13 17:04:51;;;;;;;;;;;4.50;99.90;;;2.34;68.49;96648.59;10298378;28;2030;-80
2021/04/13 17:09:53;;;;;;;;;;;3.90;99.90;;;2.19;72.33;96626.75;10313162;28;2005;-81
2021/04/13 17:14:54;;;;;;;;;;;3.40;99.90;;;2.46;73.27;96620.47;10312850;28;2083;-80
2021/04/13 17:19:56;;;;;;;;;;;3.40;99.90;;;2.68;74.39;96611.31;10302048;28;1878;-83
2021/04/13 17:24:58;;;;;;;;;;;3.70;99.90;;;2.63;70.47;96631.53;10289104;28;1932;-83
2021/04/13 17:30:00;;;;;;;;;;;3.80;99.90;;;2.63;70.04;96627.03;10276169;28;1810;-82
2021/04/13 17:35:03;;;;;;;;;;;3.90;99.90;;;2.63;72.71;96620.91;10292716;28;2031;-82
2021/04/13 17:40:04;;;;;;;;;;;3.80;99.90;;;2.67;71.30;96625.63;10295471;28;1964;-80
2021/04/13 17:45:09;;;;;;;;;;;3.90;99.90;;;2.53;70.92;96621.28;10315309;28;2030;-81
2021/04/13 17:50:13;;;;;;;;;;;3.80;99.90;;;2.46;71.11;96620.47;10318202;28;1869;-82
2021/04/13 17:55:16;;;;;;;;;;;3.70;99.90;;;2.30;71.98;96634.94;10318072;28;1895;-80
2021/04/13 18:00:17;;;;;;;;;;;3.60;99.90;;;2.17;73.45;96638.38;10314701;28;2110;-80
2021/04/13 18:05:19;;;;;;;;;;;3.50;99.90;;;2.08;72.65;96642.19;10295303;28;1974;-81
2021/04/13 18:10:21;;;;;;;;;;;3.40;99.90;;;1.97;73.47;96649.91;10299977;28;2101;-82
2021/04/13 18:15:24;;;;;;;;;;;3.50;99.90;;;1.92;73.52;96655.81;10293541;28;1892;-83
2021/04/13 18:20:26;;;;;;;;;;;4.80;99.90;;;1.83;72.90;96673.72;10297782;28;1957;-82
2021/04/13 18:25:27;;;;;;;;;;;3.10;99.90;;;1.85;73.34;96673.53;10306421;28;1958;-81
2021/04/13 18:30:29;;;;;;;;;;;3.10;99.90;;;1.97;74.75;96682.53;10315425;28;1567;-82
2021/04/13 18:35:31;;;;;;;;;;;3.10;99.90;;;2.16;73.82;96686.28;10318090;28;1538;-80
2021/04/13 18:40:33;;;;;;;;;;;3.20;99.90;;;2.39;73.82;96693.94;10318330;28;1567;-81
2021/04/13 18:45:35;;;;;;;;;;;4.60;99.90;;;2.50;73.04;96693.38;10276129;28;1976;-81
2021/04/13 18:50:37;;;;;;;;;;;4.20;99.90;;;2.61;73.91;96708.72;10281455;28;1352;-81
2021/04/13 18:55:40;;;;;;;;;;;3.60;99.90;;;2.68;73.01;96711.38;10296742;28;1544;-80
2021/04/13 19:00:42;;;;;;;;;;;3.70;99.90;;;2.65;74.26;96704.63;10298644;28;1371;-81
2021/04/13 19:05:44;;;;;;;;;;;3.80;99.90;;;2.57;73.60;96710.13;10300315;28;1887;-83
2021/04/13 19:10:50;;;;;;;;;;;3.70;99.90;;;2.56;74.31;96713.81;10272288;28;1365;-80
2021/04/13 19:15:52;;;;;;;;;;;3.70;99.90;;;2.48;74.23;96723.75;10288994;28;1995;-81
2021/04/13 19:20:56;;;;;;;;;;;3.70;99.90;;;2.47;74.54;96727.44;10280058;28;1464;-80
2021/04/13 19:25:58;;;;;;;;;;;3.80;99.90;;;2.49;75.90;96728.88;10315739;28;1898;-81
2021/04/13 19:31:00;;;;;;;;;;;3.60;99.90;;;2.50;75.36;96737.66;10313904;28;1583;-82
2021/04/13 19:36:01;;;;;;;;;;;3.60;99.90;;;2.45;74.59;96740.91;10303047;28;1735;-81
2021/04/13 19:41:03;;;;;;;;;;;3.60;99.90;;;2.41;74.90;96743.13;10279767;28;1550;-81
2021/04/13 19:46:05;;;;;;;;;;;3.50;99.90;;;2.39;75.34;96747.00;10288734;28;1985;-80
2021/04/13 19:51:07;;;;;;;;;;;3.50;99.90;;;2.44;75.82;96749.91;10306237;28;1606;-82
2021/04/13 19:56:09;;;;;;;;;;;3.50;99.90;;;2.46;76.31;96745.19;10306973;28;1898;-82
2021/04/13 20:01:10;;;;;;;;;;;3.50;99.90;;;2.45;76.55;96746.22;10309229;28;1571;-81
2021/04/13 20:06:12;;;;;;;;;;;3.50;99.90;;;2.39;76.63;96747.00;10329578;28;1982;-84
2021/04/13 20:11:15;;;;;;;;;;;3.60;99.90;;;2.43;77.64;96740.28;10311451;28;1575;-83
2021/04/13 20:16:17;;;;;;;;;;;4.40;99.90;;;2.42;77.72;96738.66;10322482;28;1184;-83
2021/04/13 20:21:19;;;;;;;;;;;3.50;99.90;;;2.43;77.87;96745.59;10280505;28;1662;-82
2021/04/13 20:26:20;;;;;;;;;;;3.50;99.90;;;2.46;77.32;96742.53;10323607;28;1910;-82
2021/04/13 20:31:22;;;;;;;;;;;3.50;99.90;;;2.51;77.21;96745.41;10305508;28;1333;-81
2021/04/13 20:41:44;;;;;;;;;;;3.60;99.90;;;2.56;77.65;96748.31;10282329;28;1765;-81
2021/04/13 20:46:46;;;;;;;;;;;3.60;99.90;;;2.53;77.02;96743.38;10294733;28;1939;-80
2021/04/13 20:51:49;;;;;;;;;;;3.60;99.90;;;2.39;77.13;96741.69;10288498;28;1587;-84
2021/04/13 20:56:50;;;;;;;;;;;3.50;99.90;;;2.32;77.65;96746.16;10293355;28;1325;-80
2021/04/13 21:01:52;;;;;;;;;;;3.50;99.90;;;2.20;77.93;96747.75;10290977;28;1612;-80
2021/04/13 21:06:59;;;;;;;;;;;3.40;99.90;;;2.09;77.84;96752.56;10269336;28;1992;-80
2021/04/13 21:12:01;;;;;;;;;;;3.30;99.90;;;2.02;78.07;96751.72;10290387;28;1977;-83
2021/04/13 21:17:03;;;;;;;;;;;3.20;99.90;;;2.07;77.14;96754.63;10276753;28;1980;-81
2021/04/13 21:22:05;;;;;;;;;;;4.20;99.90;;;2.17;77.61;96759.56;10298254;28;1976;-80
2021/04/13 21:27:07;;;;;;;;;;;3.20;99.90;;;2.26;77.88;96754.91;10281190;28;2048;-81
2021/04/13 21:32:08;;;;;;;;;;;3.30;99.90;;;2.29;76.85;96751.84;10277819;28;2003;-82
2021/04/13 21:37:10;;;;;;;;;;;3.40;99.90;;;2.06;76.24;96752.16;10274015;28;2004;-81
2021/04/13 21:42:12;;;;;;;;;;;5.20;99.90;;;1.92;78.06;96761.88;10297289;28;1813;-81
2021/04/13 21:47:14;;;;;;;;;;;3.10;99.90;;;1.64;78.73;96753.94;10304463;28;2019;-80
2021/04/13 21:52:16;;;;;;;;;;;2.90;99.90;;;1.45;79.36;96752.78;10278767;28;1877;-81
2021/04/13 21:57:18;;;;;;;;;;;2.70;99.90;;;1.34;79.32;96767.38;10286334;28;1913;-81
2021/04/13 22:02:20;;;;;;;;;;;3.80;99.90;;;1.21;79.71;96759.34;10318651;28;1945;-80
2021/04/13 22:07:24;;;;;;;;;;;2.50;99.90;;;1.12;80.22;96759.63;10289741;28;1926;-80
2021/04/13 22:12:25;;;;;;;;;;;2.30;99.90;;;1.03;80.39;96757.13;10277100;28;2032;-81
2021/04/13 22:17:28;;;;;;;;;;;2.40;99.90;;;0.93;80.68;96759.25;10292583;28;1783;-80
2021/04/13 22:22:30;;;;;;;;;;;2.30;99.90;;;0.79;81.41;96752.19;10297826;28;2003;-82
2021/04/13 22:27:32;;;;;;;;;;;2.10;99.90;;;0.72;81.92;96754.78;10306525;28;1952;-81
2021/04/13 22:32:34;;;;;;;;;;;2.10;99.90;;;0.66;82.10;96749.41;10297263;28;2055;-80
2021/04/13 22:37:36;;;;;;;;;;;1.90;99.90;;;0.54;82.30;96741.97;10290471;28;2005;-80
2021/04/13 22:42:37;;;;;;;;;;;1.90;99.90;;;0.51;81.95;96741.53;10286663;28;2029;-81
2021/04/13 22:47:39;;;;;;;;;;;1.80;99.90;;;0.48;82.49;96747.19;10280167;28;2028;-81
2021/04/13 22:52:41;;;;;;;;;;;1.80;99.90;;;0.42;82.73;96746.09;10268617;28;2035;-81
2021/04/13 22:57:43;;;;;;;;;;;1.70;99.90;;;0.38;83.06;96733.41;10268836;28;1873;-82
2021/04/13 23:02:45;;;;;;;;;;;1.70;99.90;;;0.30;83.34;96744.94;10277731;28;2043;-81
2021/04/13 23:07:46;;;;;;;;;;;1.60;99.90;;;0.25;83.28;96731.44;10286781;28;2111;-81
2021/04/13 23:12:48;;;;;;;;;;;1.50;99.90;;;0.29;83.39;96727.44;10295478;28;1715;-81
2021/04/13 23:17:50;;;;;;;;;;;1.50;99.90;;;0.22;83.40;96726.53;10312881;28;1892;-80
2021/04/13 23:22:52;;;;;;;;;;;1.90;99.90;;;0.14;83.70;96724.81;10306032;28;1996;-80
2021/04/13 23:27:54;;;;;;;;;;;1.40;99.90;;;0.02;83.54;96721.00;10303004;28;1903;-80
2021/04/13 23:32:56;;;;;;;;;;;1.30;99.90;;;-0.01;83.31;96721.34;10289029;28;2119;-80
2021/04/13 23:37:58;;;;;;;;;;;1.30;99.90;;;-0.05;83.29;96720.94;10321175;28;2141;-81
2021/04/13 23:43:00;;;;;;;;;;;1.20;99.90;;;-0.13;83.66;96726.28;10292273;28;1687;-81
2021/04/13 23:48:02;;;;;;;;;;;1.20;99.90;;;-0.19;83.91;96716.47;10312318;28;2036;-81
2021/04/13 23:53:04;;;;;;;;;;;1.10;99.90;;;-0.24;83.70;96708.28;10290611;28;2084;-80
2021/04/13 23:58:06;;;;;;;;;;;1.00;99.90;;;-0.23;82.81;96704.63;10306240;28;2056;-81
